Heil, North Dakota
Current Conditions -  °F | °C
As of 1:35 AM on Friday 28 Nov 2014 (Local Time) from KD57 Reporting Station
Broken Clouds Broken Clouds  
Wind Chill:   Ceiling: 7500
Heat Index: 12°   Visibility: 10mi
Dew Point:   Wind: 5mph
Humidity: 85%   Direction: 80°E
Pressure: 29.8"   Gusts: NA
Location:  46.4161°N, 101.799°W
Report Text: KD57 280835Z AUTO 08004KT 10SM FEW060 BKN075 BKN095 M11/M13 A2980 RMK AO2 TSNO
Loading
Personal Weather Stations






























Interactive Weather Map New forecast layout! Learn more

10-Day Weather Forecast

Advertisements
Track Severe Weather on mobile